createdAt,value
2018-02-09T00:00:46.960Z,98372.25
2018-02-09T00:03:15.285Z,98373.50
2018-02-09T00:05:43.658Z,98375.55
2018-02-09T00:08:11.987Z,98376.73
2018-02-09T00:10:40.328Z,98369.05
2018-02-09T00:13:08.935Z,98375.48
2018-02-09T00:15:37.260Z,98372.64
2018-02-09T00:18:05.600Z,98380.09
2018-02-09T00:20:33.984Z,98380.16
2018-02-09T00:23:02.308Z,98382.96
2018-02-09T00:25:30.628Z,98379.77
2018-02-09T00:27:59.003Z,98372.94
2018-02-09T00:30:27.325Z,98378.41
2018-02-09T00:32:55.652Z,98373.77
2018-02-09T00:35:24.011Z,98382.03
2018-02-09T00:37:52.676Z,98380.30
2018-02-09T00:40:21.759Z,98373.59
2018-02-09T00:42:50.900Z,98376.17
2018-02-09T00:45:19.228Z,98371.91
2018-02-09T00:47:47.559Z,98373.10
2018-02-09T00:50:15.944Z,98370.31
2018-02-09T00:52:44.271Z,98375.22
2018-02-09T00:55:12.611Z,98370.03
2018-02-09T00:57:41.000Z,98374.67
2018-02-09T01:00:09.324Z,98365.66
2018-02-09T01:02:37.691Z,98372.17
2018-02-09T01:05:06.827Z,98366.25
2018-02-09T01:07:35.147Z,98367.90
2018-02-09T01:10:03.524Z,98371.20
2018-02-09T01:12:31.899Z,98364.58
2018-02-09T01:15:00.217Z,98366.92
2018-02-09T01:17:28.539Z,98366.56
2018-02-09T01:19:57.532Z,98368.52
2018-02-09T01:22:25.843Z,98367.69
2018-02-09T01:24:54.192Z,98368.38
2018-02-09T01:27:22.564Z,98360.17
2018-02-09T01:29:50.896Z,98361.63
2018-02-09T01:32:19.233Z,98362.05
2018-02-09T01:34:47.608Z,98355.74
2018-02-09T01:37:15.945Z,98360.17
2018-02-09T01:39:44.260Z,98353.14
2018-02-09T01:42:12.642Z,98353.63
2018-02-09T01:44:40.963Z,98353.20
2018-02-09T01:47:09.300Z,98350.86
2018-02-09T01:49:37.662Z,98348.11
2018-02-09T01:52:06.084Z,98345.60
2018-02-09T01:54:35.172Z,98346.19
2018-02-09T01:57:03.599Z,98342.58
2018-02-09T01:59:31.922Z,98346.42
2018-02-09T02:02:00.298Z,98340.13
2018-02-09T02:04:28.751Z,98336.62
2018-02-09T02:06:57.073Z,98340.31
2018-02-09T02:09:25.396Z,98336.66
2018-02-09T02:11:53.789Z,98331.37
2018-02-09T02:14:22.115Z,98331.23
2018-02-09T02:16:50.459Z,98325.47
2018-02-09T02:19:19.700Z,98331.59
2018-02-09T02:21:48.015Z,98325.75
2018-02-09T02:24:16.339Z,98325.22
2018-02-09T02:26:44.772Z,98319.20
2018-02-09T02:29:13.094Z,98324.77
2018-02-09T02:31:42.498Z,98314.41
2018-02-09T02:34:11.987Z,98318.40
2018-02-09T02:36:40.546Z,98315.13
2018-02-09T02:39:08.904Z,98315.96
2018-02-09T02:41:37.951Z,98314.54
2018-02-09T02:44:06.291Z,98304.39
2018-02-09T02:46:35.360Z,98297.55
2018-02-09T02:49:03.736Z,98298.70
2018-02-09T02:51:32.053Z,98303.86
2018-02-09T02:54:00.362Z,98301.50
2018-02-09T02:56:28.743Z,98301.81
2018-02-09T02:58:57.071Z,98298.12
2018-02-09T03:01:25.402Z,98299.67
2018-02-09T03:03:53.752Z,98301.11
2018-02-09T03:06:22.076Z,98297.09
2018-02-09T03:08:50.391Z,98300.08
2018-02-09T03:11:18.752Z,98297.01
2018-02-09T03:13:47.836Z,98302.42
2018-02-09T03:16:16.151Z,98305.49
2018-02-09T03:18:44.505Z,98306.17
2018-02-09T03:21:12.828Z,98293.73
2018-02-09T03:23:41.538Z,98303.26
2018-02-09T03:26:09.935Z,98299.53
2018-02-09T03:28:38.247Z,98293.95
2018-02-09T03:31:07.159Z,98292.86
2018-02-09T03:33:35.535Z,98292.14
2018-02-09T03:36:03.848Z,98289.82
2018-02-09T03:38:32.172Z,98286.40
2018-02-09T03:41:00.676Z,98281.45
2018-02-09T03:43:28.992Z,98285.25
2018-02-09T03:45:58.339Z,98284.59
2018-02-09T03:48:26.735Z,98283.29
2018-02-09T03:50:55.363Z,98281.39
2018-02-09T03:53:23.724Z,98280.75
2018-02-09T03:55:52.375Z,98283.55
2018-02-09T03:58:20.688Z,98277.66
2018-02-09T04:00:49.073Z,98280.83
2018-02-09T04:03:17.422Z,98286.86
2018-02-09T04:05:46.499Z,98278.50
2018-02-09T04:08:14.811Z,98280.79
2018-02-09T04:10:43.956Z,98278.34
2018-02-09T04:13:12.275Z,98283.42
2018-02-09T04:15:40.595Z,98282.12
2018-02-09T04:18:08.972Z,98278.27
2018-02-09T04:20:37.835Z,98278.27
2018-02-09T04:23:06.156Z,98276.92
2018-02-09T04:25:34.524Z,98276.97
2018-02-09T04:28:02.864Z,98275.97
2018-02-09T04:30:31.953Z,98277.63
2018-02-09T04:33:01.087Z,98279.36
2018-02-09T04:35:29.400Z,98277.06
2018-02-09T04:37:57.715Z,98274.25
2018-02-09T04:40:27.049Z,98273.07
2018-02-09T04:42:55.437Z,98271.60
2018-02-09T04:45:23.758Z,98271.44
2018-02-09T04:47:52.139Z,98268.61
2018-02-09T04:50:20.459Z,98267.52
2018-02-09T04:52:48.788Z,98266.70
2018-02-09T04:55:17.151Z,98268.83
2018-02-09T04:57:45.468Z,98266.59
2018-02-09T05:00:14.555Z,98261.85
2018-02-09T05:02:43.684Z,98253.76
2018-02-09T05:05:11.991Z,98257.02
2018-02-09T05:07:40.339Z,98257.96
2018-02-09T05:10:08.715Z,98255.78
2018-02-09T05:12:37.033Z,98254.35
2018-02-09T05:15:05.356Z,98250.09
2018-02-09T05:17:33.731Z,98248.34
2018-02-09T05:20:02.068Z,98250.50
2018-02-09T05:22:30.391Z,98251.41
2018-02-09T05:24:58.767Z,98248.17
2018-02-09T05:27:27.088Z,98250.17
2018-02-09T05:29:55.399Z,98248.23
2018-02-09T05:32:23.779Z,98247.73
2018-02-09T05:34:52.868Z,98247.41
2018-02-09T05:37:21.946Z,98247.23
2018-02-09T05:39:50.299Z,98251.61
2018-02-09T05:42:18.617Z,98247.30
2018-02-09T05:44:46.936Z,98241.91
2018-02-09T05:47:15.394Z,98246.53
2018-02-09T05:49:43.747Z,98243.61
2018-02-09T05:52:12.084Z,98240.92
2018-02-09T05:54:40.560Z,98244.28
2018-02-09T05:57:08.876Z,98239.88
2018-02-09T05:59:37.188Z,98241.46
2018-02-09T06:02:06.075Z,98240.42
2018-02-09T06:04:34.396Z,98239.59
2018-02-09T06:07:02.722Z,98239.37
2018-02-09T06:09:31.123Z,98236.90
2018-02-09T06:12:00.085Z,98236.39
2018-02-09T06:14:28.440Z,98232.28
2018-02-09T06:16:56.851Z,98234.22
2018-02-09T06:19:25.955Z,98236.05
2018-02-09T06:21:55.027Z,98236.38
2018-02-09T06:24:23.392Z,98234.63
2018-02-09T06:26:51.747Z,98231.58
2018-02-09T06:29:20.088Z,98235.66
2018-02-09T06:31:49.223Z,98230.67
2018-02-09T06:34:17.608Z,98236.12
2018-02-09T06:36:45.924Z,98232.50
2018-02-09T06:39:15.204Z,98229.24
2018-02-09T06:41:43.732Z,98227.20
2018-02-09T06:44:12.043Z,98229.31
2018-02-09T06:46:40.420Z,98233.47
2018-02-09T06:49:08.734Z,98236.42
2018-02-09T06:51:37.831Z,98236.45
2018-02-09T06:54:06.204Z,98233.48
2018-02-09T06:56:34.547Z,98240.73
2018-02-09T06:59:02.861Z,98234.57
2018-02-09T07:01:31.229Z,98238.45
2018-02-09T07:03:59.543Z,98234.27
2018-02-09T07:06:27.867Z,98232.85
2018-02-09T07:08:56.234Z,98232.32
2018-02-09T07:11:24.551Z,98230.17
2018-02-09T07:13:52.873Z,98234.48
2018-02-09T07:16:21.263Z,98231.20
2018-02-09T07:18:49.572Z,98224.69
2018-02-09T07:21:17.900Z,98225.31
2018-02-09T07:23:46.262Z,98220.19
2018-02-09T07:26:14.579Z,98216.63
2018-02-09T07:28:42.914Z,98218.64
2018-02-09T07:31:11.361Z,98215.77
2018-02-09T07:33:39.713Z,98220.65
2018-02-09T07:36:08.836Z,98214.98
2018-02-09T07:38:37.208Z,98213.34
2018-02-09T07:41:05.953Z,98215.98
2018-02-09T07:43:34.401Z,98218.78
2018-02-09T07:46:02.765Z,98220.22
2018-02-09T07:48:31.076Z,98218.39
2018-02-09T07:50:59.406Z,98210.83
2018-02-09T07:53:27.794Z,98213.34
2018-02-09T07:55:56.107Z,98210.58
2018-02-09T07:58:24.423Z,98201.75
2018-02-09T08:00:52.763Z,98204.69
2018-02-09T08:03:21.094Z,98207.25
2018-02-09T08:05:49.462Z,98204.47
2018-02-09T08:08:17.784Z,98198.14
2018-02-09T08:10:46.115Z,98196.42
2018-02-09T08:13:14.478Z,98195.44
2018-02-09T08:15:42.795Z,98194.59
2018-02-09T08:18:11.132Z,98194.83
2018-02-09T08:20:39.507Z,98188.28
2018-02-09T08:23:08.166Z,98191.47
2018-02-09T08:25:36.471Z,98190.86
2018-02-09T08:28:04.840Z,98187.44
2018-02-09T08:30:33.165Z,98190.33
2018-02-09T08:33:02.271Z,98193.06
2018-02-09T08:35:30.728Z,98190.16
2018-02-09T08:37:59.040Z,98190.48
2018-02-09T08:40:27.356Z,98187.31
2018-02-09T08:42:55.708Z,98177.86
2018-02-09T08:45:24.036Z,98185.95
2018-02-09T08:47:52.371Z,98183.44
2018-02-09T08:50:20.723Z,98175.03
2018-02-09T08:52:49.048Z,98174.45
2018-02-09T08:55:17.402Z,98172.33
2018-02-09T08:57:45.764Z,98177.64
2018-02-09T09:00:14.075Z,98175.03
2018-02-09T09:02:42.383Z,98170.07
2018-02-09T09:05:10.724Z,98164.66
2018-02-09T09:07:39.037Z,98168.50
2018-02-09T09:10:07.355Z,98156.00
2018-02-09T09:12:35.715Z,98159.36
2018-02-09T09:15:04.027Z,98154.13
2018-02-09T09:17:32.346Z,98154.79
2018-02-09T09:20:00.739Z,98150.23
2018-02-09T09:22:29.024Z,98154.22
2018-02-09T09:24:57.377Z,98151.89
2018-02-09T09:27:25.704Z,98155.20
2018-02-09T09:29:54.026Z,98153.89
2018-02-09T09:32:22.404Z,98149.91
2018-02-09T09:34:50.720Z,98149.70
2018-02-09T09:37:19.032Z,98150.31
2018-02-09T09:39:47.363Z,98147.25
2018-02-09T09:42:15.672Z,98144.48
2018-02-09T09:44:44.816Z,98149.59
2018-02-09T09:47:13.151Z,98146.33
2018-02-09T09:49:41.468Z,98152.04
2018-02-09T09:52:09.836Z,98150.63
2018-02-09T09:54:38.152Z,98148.39
2018-02-09T09:57:06.467Z,98139.30
2018-02-09T09:59:34.815Z,98140.91
2018-02-09T10:02:03.132Z,98142.52
2018-02-09T10:04:31.475Z,98140.09
2018-02-09T10:06:59.784Z,98134.34
2018-02-09T10:09:28.152Z,98140.31
2018-02-09T10:11:57.240Z,98137.30
2018-02-09T10:14:26.320Z,98135.83
2018-02-09T10:16:54.679Z,98135.20
2018-02-09T10:19:23.003Z,98122.91
2018-02-09T10:21:51.315Z,98128.45
2018-02-09T10:24:19.675Z,98122.23
2018-02-09T10:26:47.996Z,98126.09
2018-02-09T10:29:16.317Z,98123.94
2018-02-09T10:31:44.663Z,98119.12
2018-02-09T10:34:12.975Z,98120.29
2018-02-09T10:36:41.303Z,98117.66
2018-02-09T10:39:09.639Z,98105.11
2018-02-09T10:41:39.122Z,98108.91
2018-02-09T10:44:07.471Z,98105.84
2018-02-09T10:46:35.914Z,98102.83
2018-02-09T10:49:04.229Z,98107.78
2018-02-09T10:51:32.544Z,98104.28
2018-02-09T10:54:00.920Z,98095.28
2018-02-09T10:56:29.230Z,98099.92
2018-02-09T10:58:57.556Z,98096.72
2018-02-09T11:01:32.491Z,98090.78
2018-02-09T11:04:00.808Z,98090.92
2018-02-09T11:06:29.129Z,98083.02
2018-02-09T11:08:57.766Z,98086.65
2018-02-09T11:11:26.887Z,98086.39
2018-02-09T11:13:55.163Z,98079.22
2018-02-09T11:16:23.504Z,98078.13
2018-02-09T11:18:52.575Z,98070.55
2018-02-09T11:21:20.887Z,98069.77
2018-02-09T11:23:49.247Z,98063.66
2018-02-09T11:26:17.553Z,98063.38
2018-02-09T11:28:45.864Z,98062.18
2018-02-09T11:31:14.219Z,98061.47
2018-02-09T11:33:42.537Z,98060.41
2018-02-09T11:36:10.852Z,98054.55
2018-02-09T11:38:39.223Z,98055.09
2018-02-09T11:41:08.304Z,98046.81
2018-02-09T11:43:37.391Z,98053.48
2018-02-09T11:46:05.745Z,98046.42
2018-02-09T11:48:34.061Z,98041.85
2018-02-09T11:51:02.379Z,98055.61
2018-02-09T11:53:30.715Z,98038.81
2018-02-09T11:55:59.787Z,98030.41
2018-02-09T11:58:28.099Z,98033.91
2018-02-09T12:00:56.459Z,98034.09
2018-02-09T12:03:24.778Z,98027.27
2018-02-09T12:05:53.099Z,98023.14
2018-02-09T12:08:21.534Z,98020.78
2018-02-09T12:10:49.852Z,98026.13
2018-02-09T12:13:18.296Z,98019.64
2018-02-09T12:15:46.703Z,98017.84
2018-02-09T12:18:15.032Z,98007.58
2018-02-09T12:20:43.571Z,98010.19
2018-02-09T12:23:11.948Z,98000.81
2018-02-09T12:25:40.288Z,97994.42
2018-02-09T12:28:08.663Z,97991.64
2018-02-09T12:30:37.149Z,97996.30
2018-02-09T12:33:05.580Z,97989.33
2018-02-09T12:35:33.967Z,97980.46
2018-02-09T12:38:02.825Z,97981.81
2018-02-09T12:40:31.096Z,97973.48
2018-02-09T12:42:59.416Z,97975.97
2018-02-09T12:45:27.753Z,97968.37
2018-02-09T12:47:56.059Z,97965.93
2018-02-09T12:50:24.404Z,97968.77
2018-02-09T12:52:52.711Z,97957.09
2018-02-09T12:55:21.076Z,97953.59
2018-02-09T12:57:50.305Z,97952.82
2018-02-09T13:00:19.400Z,97955.39
2018-02-09T13:02:48.213Z,97944.95
2018-02-09T13:05:16.515Z,97940.31
2018-02-09T13:07:45.833Z,97944.16
2018-02-09T13:10:14.245Z,97940.56
2018-02-09T13:13:01.103Z,97932.69
2018-02-09T13:15:29.423Z,97928.45
2018-02-09T13:17:57.728Z,97926.44
2018-02-09T13:20:26.079Z,97925.97
2018-02-09T13:23:11.952Z,97924.14
2018-02-09T13:25:40.319Z,97928.64
2018-02-09T13:28:08.687Z,97926.49
2018-02-09T13:30:37.014Z,97923.42
2018-02-09T13:33:23.236Z,97926.42
2018-02-09T13:35:51.540Z,97922.79
2018-02-09T13:38:19.853Z,97921.82
2018-02-09T13:40:48.212Z,97917.07
2018-02-09T13:43:16.515Z,97919.04
2018-02-09T13:45:44.834Z,97917.73
2018-02-09T13:48:13.185Z,97912.28
2018-02-09T13:50:41.488Z,97915.34
2018-02-09T13:53:09.791Z,97914.80
2018-02-09T13:55:38.143Z,97908.23
2018-02-09T13:58:06.448Z,97904.75
2018-02-09T14:00:34.752Z,97903.73
2018-02-09T14:03:03.113Z,97905.84
2018-02-09T14:05:37.160Z,97907.84
2018-02-09T14:08:06.469Z,97906.56
2018-02-09T14:10:34.780Z,97899.60
2018-02-09T14:13:03.100Z,97905.27
2018-02-09T14:15:31.487Z,97903.66
2018-02-09T14:18:00.572Z,97904.75
2018-02-09T14:20:28.918Z,97899.32
2018-02-09T14:22:57.267Z,97901.26
2018-02-09T14:25:25.572Z,97895.78
2018-02-09T14:27:53.881Z,97895.92
2018-02-09T14:30:22.308Z,97893.22
2018-02-09T14:32:50.615Z,97894.63
2018-02-09T14:35:18.920Z,97890.70
2018-02-09T14:37:48.135Z,97892.45
2018-02-09T14:40:16.439Z,97892.20
2018-02-09T14:42:44.747Z,97886.22
2018-02-09T14:45:13.113Z,97891.56
2018-02-09T14:47:41.424Z,97890.44
2018-02-09T14:50:09.730Z,97887.36
2018-02-09T14:52:38.088Z,97883.07
2018-02-09T14:55:07.165Z,97886.59
2018-02-09T14:57:35.471Z,97883.05
2018-02-09T15:00:04.678Z,97878.01
2018-02-09T15:02:32.995Z,97871.49
2018-02-09T15:05:02.201Z,97874.87
2018-02-09T15:07:31.835Z,97877.95
2018-02-09T15:10:00.373Z,97873.08
2018-02-09T15:12:28.695Z,97870.33
2018-02-09T15:14:57.061Z,97877.26
2018-02-09T15:17:25.367Z,97885.94
2018-02-09T15:19:53.707Z,97884.06
2018-02-09T15:22:22.088Z,97875.83
2018-02-09T15:24:50.391Z,97876.92
2018-02-09T15:27:19.468Z,97887.03
2018-02-09T15:29:47.828Z,97879.16
2018-02-09T15:32:16.135Z,97884.21
2018-02-09T15:34:44.711Z,97885.09
2018-02-09T15:37:13.080Z,97882.39
2018-02-09T15:39:41.433Z,97878.30
2018-02-09T15:42:09.760Z,97880.63
2018-02-09T15:44:38.833Z,97878.97
2018-02-09T15:47:07.807Z,97879.41
2018-02-09T15:49:36.939Z,97881.30
2018-02-09T15:52:05.265Z,97877.45
2018-02-09T15:54:34.216Z,97879.94
2018-02-09T15:57:03.355Z,97877.77
2018-02-09T15:59:31.664Z,97876.30
2018-02-09T16:01:59.988Z,97873.70
2018-02-09T16:04:28.342Z,97871.06
2018-02-09T16:06:57.424Z,97877.44
2018-02-09T16:09:25.747Z,97881.29
2018-02-09T16:11:54.639Z,97876.06
2018-02-09T16:14:22.976Z,97874.00
2018-02-09T16:16:51.281Z,97876.28
2018-02-09T16:19:20.673Z,97880.05
2018-02-09T16:21:48.988Z,97880.72
2018-02-09T16:24:17.319Z,97880.92
2018-02-09T16:26:45.680Z,97883.86
2018-02-09T16:29:13.984Z,97884.13
2018-02-09T16:31:43.056Z,97888.48
2018-02-09T16:34:11.454Z,97885.70
2018-02-09T16:36:39.772Z,97891.67
2018-02-09T16:39:08.079Z,97889.48
2018-02-09T16:41:36.492Z,97885.41
2018-02-09T16:44:05.092Z,97884.86
2018-02-09T16:46:33.420Z,97890.13
2018-02-09T16:49:01.896Z,97889.69
2018-02-09T16:51:30.220Z,97891.13
2018-02-09T16:53:58.532Z,97890.47
2018-02-09T16:56:26.906Z,97893.27
2018-02-09T16:58:55.216Z,97892.13
2018-02-09T17:01:23.528Z,97891.86
2018-02-09T17:03:51.881Z,97891.60
2018-02-09T17:06:20.184Z,97900.33
2018-02-09T17:08:49.855Z,97895.00
2018-02-09T17:11:18.171Z,97897.41
2018-02-09T17:13:46.525Z,97900.01
2018-02-09T17:16:14.896Z,97901.50
2018-02-09T17:18:43.202Z,97904.13
2018-02-09T17:21:11.524Z,97906.13
2018-02-09T17:23:39.856Z,97913.68
2018-02-09T17:26:08.826Z,97913.66
2018-02-09T17:28:37.135Z,97913.37
2018-02-09T17:31:05.500Z,97910.77
2018-02-09T17:33:33.819Z,97918.61
2018-02-09T17:36:02.156Z,97910.39
2018-02-09T17:38:31.241Z,97911.05
2018-02-09T17:41:00.315Z,97914.40
2018-02-09T17:43:28.688Z,97917.27
2018-02-09T17:45:57.068Z,97906.90
2018-02-09T17:48:25.401Z,97917.22
2018-02-09T17:50:54.535Z,97914.63
2018-02-09T17:53:23.209Z,97919.08
2018-02-09T17:55:51.560Z,97916.75
2018-02-09T17:58:19.915Z,97910.01
2018-02-09T18:00:48.280Z,97916.77
2018-02-09T18:03:16.612Z,97916.08
2018-02-09T18:05:44.924Z,97922.58
2018-02-09T18:08:13.275Z,97916.08
2018-02-09T18:10:41.579Z,97920.83
2018-02-09T18:13:09.903Z,97922.11
2018-02-09T18:15:38.272Z,97924.78
2018-02-09T18:18:07.142Z,97929.64
2018-02-09T18:20:35.522Z,97927.44
2018-02-09T18:23:03.859Z,97931.16
2018-02-09T18:25:32.190Z,97931.58
2018-02-09T18:28:01.616Z,97932.84
2018-02-09T18:30:29.980Z,97939.11
2018-02-09T18:32:58.315Z,97938.22
2018-02-09T18:35:26.672Z,97939.22
2018-02-09T18:37:55.391Z,97938.92
2018-02-09T18:40:23.879Z,97941.20
2018-02-09T18:42:52.627Z,97934.76
2018-02-09T18:45:20.939Z,97935.33
2018-02-09T18:47:49.251Z,97935.23
2018-02-09T18:50:17.660Z,97934.47
2018-02-09T18:52:45.978Z,97938.24
2018-02-09T18:55:14.283Z,97939.87
2018-02-09T18:57:42.700Z,97942.13
2018-02-09T19:00:11.011Z,97943.17
2018-02-09T19:02:39.311Z,97944.14
2018-02-09T19:05:07.671Z,97947.10
2018-02-09T19:07:35.976Z,97942.20
2018-02-09T19:10:05.193Z,97944.30
2018-02-09T19:12:33.549Z,97943.67
2018-02-09T19:15:01.864Z,97948.36
2018-02-09T19:17:30.184Z,97951.70
2018-02-09T19:19:58.828Z,97950.20
2018-02-09T19:22:27.135Z,97947.35
2018-02-09T19:24:55.723Z,97946.86
2018-02-09T19:27:24.106Z,97957.01
2018-02-09T19:29:52.437Z,97954.95
2018-02-09T19:32:21.011Z,97954.30
2018-02-09T19:34:49.345Z,97955.19
2018-02-09T19:37:17.647Z,97960.89
2018-02-09T19:39:45.956Z,97958.97
2018-02-09T19:42:14.840Z,97962.33
2018-02-09T19:44:43.155Z,97958.44
2018-02-09T19:47:11.515Z,97955.04
2018-02-09T19:49:40.234Z,97952.58
2018-02-09T19:52:08.723Z,97949.09
2018-02-09T19:54:37.148Z,97952.16
2018-02-09T19:57:05.471Z,97950.55
2018-02-09T19:59:34.476Z,97953.78
2018-02-09T20:02:03.588Z,97957.73
2018-02-09T20:04:31.919Z,97960.28
2018-02-09T20:07:00.328Z,97955.02
2018-02-09T20:09:29.427Z,97955.81
2018-02-09T20:11:59.132Z,97961.07
2018-02-09T20:14:27.485Z,97969.56
2018-02-09T20:16:55.791Z,97959.20
2018-02-09T20:19:24.115Z,97963.70
2018-02-09T20:21:53.148Z,97969.44
2018-02-09T20:24:21.487Z,97963.86
2018-02-09T20:26:50.163Z,97966.17
2018-02-09T20:29:18.735Z,97965.27
2018-02-09T20:31:47.053Z,97960.63
2018-02-09T20:34:15.368Z,97961.55
2018-02-09T20:36:43.758Z,97961.98
2018-02-09T20:39:12.831Z,97958.30
2018-02-09T20:41:41.905Z,97962.38
2018-02-09T20:44:10.919Z,97963.86
2018-02-09T20:46:39.264Z,97959.70
2018-02-09T20:49:07.636Z,97960.61
2018-02-09T20:51:35.991Z,97963.52
2018-02-09T20:54:04.313Z,97958.69
2018-02-09T20:56:32.675Z,97965.91
2018-02-09T20:59:01.860Z,97960.22
2018-02-09T21:01:30.167Z,97964.81
2018-02-09T21:03:58.559Z,97965.09
2018-02-09T21:06:26.888Z,97967.64
2018-02-09T21:08:55.208Z,97965.28
2018-02-09T21:11:23.560Z,97972.13
2018-02-09T21:13:51.937Z,97967.04
2018-02-09T21:16:20.228Z,97964.92
2018-02-09T21:18:48.568Z,97972.98
2018-02-09T21:21:16.884Z,97971.59
2018-02-09T21:23:45.280Z,97974.23
2018-02-09T21:26:13.618Z,97971.65
2018-02-09T21:28:42.647Z,97972.91
2018-02-09T21:31:10.987Z,97974.11
2018-02-09T21:33:39.644Z,97971.73
2018-02-09T21:36:08.309Z,97974.45
2018-02-09T21:38:36.671Z,97974.77
2018-02-09T21:41:04.984Z,97975.11
2018-02-09T21:43:33.296Z,97972.92
2018-02-09T21:46:01.648Z,97980.44
2018-02-09T21:48:30.196Z,97974.52
2018-02-09T21:50:59.560Z,97978.21
2018-02-09T21:53:27.901Z,97979.52
2018-02-09T21:55:56.308Z,97983.08
2018-02-09T21:58:24.680Z,97984.22
2018-02-09T22:00:53.004Z,97987.25
2018-02-09T22:03:21.329Z,97986.19
2018-02-09T22:05:49.706Z,97985.55
2018-02-09T22:08:18.065Z,97985.00
2018-02-09T22:10:46.435Z,97989.61
2018-02-09T22:13:14.760Z,97984.14
2018-02-09T22:15:43.224Z,97986.45
2018-02-09T22:18:11.553Z,97988.11
2018-02-09T22:20:39.876Z,97990.55
2018-02-09T22:23:08.244Z,97985.67
2018-02-09T22:25:36.559Z,97985.12
2018-02-09T22:28:04.872Z,97984.36
2018-02-09T22:30:33.224Z,97988.84
2018-02-09T22:33:02.132Z,97984.42
2018-02-09T22:35:30.447Z,97985.98
2018-02-09T22:37:58.796Z,97984.73
2018-02-09T22:40:27.110Z,97986.38
2018-02-09T22:42:55.412Z,97979.44
2018-02-09T22:45:23.780Z,97984.66
2018-02-09T22:47:52.095Z,97984.00
2018-02-09T22:50:20.411Z,97980.03
2018-02-09T22:52:48.779Z,97986.11
2018-02-09T22:55:17.088Z,97985.10
2018-02-09T22:57:45.396Z,97977.49
2018-02-09T23:00:13.775Z,97981.89
2018-02-09T23:02:42.089Z,97979.77
2018-02-09T23:05:11.161Z,97980.63
2018-02-09T23:07:39.532Z,97982.39
2018-02-09T23:10:07.864Z,97983.60
2018-02-09T23:12:36.183Z,97987.77
2018-02-09T23:15:04.544Z,97987.31
2018-02-09T23:17:33.564Z,97984.66
2018-02-09T23:20:01.884Z,97986.87
2018-02-09T23:22:30.251Z,97989.91
2018-02-09T23:24:58.572Z,97995.38
2018-02-09T23:27:26.886Z,97986.70
2018-02-09T23:29:55.239Z,97992.18
2018-02-09T23:32:23.572Z,97993.70
2018-02-09T23:34:51.891Z,97995.91
2018-02-09T23:37:20.248Z,97991.35
2018-02-09T23:39:48.575Z,97992.80
2018-02-09T23:42:16.976Z,97990.22
2018-02-09T23:44:45.336Z,97991.53
2018-02-09T23:47:13.647Z,97997.08
2018-02-09T23:49:41.999Z,97995.15
2018-02-09T23:52:11.080Z,97999.59
2018-02-09T23:54:39.392Z,98004.02
2018-02-09T23:57:07.780Z,98000.56
2018-02-09T23:59:36.103Z,98005.20
